Latest Weather Observations for Alva Beach

IDQ60801

Issued at 7:02 am EST Sunday 1 February 2015 (issued every 30 minutes, with the page automatically refreshed every 10 minutes)

About weather observations | Map of weather stations | Latest weather observations for QLD | Other Formats
Station Details ID: 033295 Name: ALVA BEACH Lat: -19.46 Lon: 147.48 Height: 7.5 m
Data from the previous 72 hours. | See also: Recent months at Alva Beach
Date/Time
EST
Temp
°C
App
Temp
°C
Dew
Point
Rel
Hum
%
Delta-T
°C
Wind Press
QNH
hPa
Press
MSL
hPa
Rain
since 9 am
mm
Dir
 
Spd
km/h
Gust
km/h
Spd
kts
Gust
kts
01/07:00am 28.2 31.8 21.2 65 4.7 NNW 4 7 2 4 1006.7 1006.7 0.0
01/06:30am 27.7 30.6 21.0 67 4.4 NNW 7 11 4 6 1006.4 1006.4 0.0
01/06:00am 26.7 29.8 21.0 71 3.8 NNW 6 9 3 5 1006.0 1006.0 0.0
01/05:30am 26.5 29.6 21.0 72 3.6 NNW 6 9 3 5 1005.9 1005.9 0.0
01/05:00am 26.6 29.5 21.1 72 3.6 NNW 7 9 4 5 1005.7 1005.7 0.0
01/04:30am 26.5 29.7 21.3 73 3.4 NW 6 7 3 4 1005.8 1005.8 0.0
01/04:00am 26.7 29.6 21.0 71 3.8 NW 7 13 4 7 1005.6 1005.6 0.0
01/03:30am 26.2 28.7 21.0 73 3.4 NNW 9 11 5 6 1005.4 1005.4 0.0
01/03:00am 26.1 29.0 20.7 72 3.6 NW 6 11 3 6 1005.6 1005.6 0.0
01/02:30am 26.8 29.5 20.6 69 4.1 NNW 7 13 4 7 1005.5 1005.5 0.0
01/02:00am 27.1 29.3 20.4 66 4.4 N 9 13 5 7 1005.8 1005.8 0.0
01/01:30am 27.1 28.9 21.2 70 3.9 N 13 19 7 10 1006.0 1006.0 0.0
01/01:00am 26.4 29.2 20.9 72 3.6 NNW 7 9 4 5 1006.7 1006.7 0.0
01/12:30am 26.6 29.5 20.7 70 3.9 NNW 6 9 3 5 1007.2 1007.2 0.0
01/12:00am 27.1 29.9 20.4 66 4.4 N 6 9 3 5 1007.6 1007.6 0.0
 
Date/Time
EST
Temp
°C
App
Temp
°C
Dew
Point
Rel
Hum
%
Delta-T
°C
Wind Press
QNH
hPa
Press
MSL
hPa
Rain
since 9 am
mm
Dir
 
Spd
km/h
Gust
km/h
Spd
kts
Gust
kts
31/11:30pm 27.6 29.9 20.7 66 4.6 NNE 9 13 5 7 1007.9 1007.9 0.0
31/11:00pm 28.0 29.6 20.8 65 4.8 N 13 17 7 9 1008.1 1008.1 0.0
31/10:30pm 28.4 28.8 20.7 63 5.1 NNE 19 22 10 12 1007.9 1007.9 0.0
31/10:00pm 28.7 28.7 20.2 60 5.6 NNE 20 24 11 13 1007.7 1007.7 0.0
31/09:30pm 28.8 28.6 19.7 58 5.9 NNE 20 24 11 13 1007.5 1007.5 0.0
31/09:00pm 29.0 28.9 20.7 61 5.5 NE 22 26 12 14 1007.3 1007.3 0.0
31/08:30pm 28.9 29.5 21.4 64 5.0 NE 20 26 11 14 1007.0 1007.0 0.0
31/08:00pm 28.9 28.3 19.8 58 6.0 NE 22 24 12 13 1006.7 1006.7 0.0
31/07:30pm 29.0 29.0 20.2 59 5.8 NE 20 26 11 14 1006.2 1006.2 0.0
31/07:00pm 28.9 30.0 22.4 68 4.4 NE 20 24 11 13 1005.9 1005.9 0.0
31/06:30pm 28.8 29.6 21.8 66 4.7 NE 20 22 11 12 1005.4 1005.4 0.0
31/06:00pm 29.2 30.2 21.7 64 5.1 ENE 19 20 10 11 1005.5 1005.5 0.0
31/05:30pm 29.4 30.8 21.9 64 5.1 NE 17 19 9 10 1005.1 1005.1 0.0
31/05:00pm 29.7 31.0 22.4 65 5.0 ENE 19 24 10 13 1004.8 1004.8 0.0
31/04:30pm 29.9 31.0 22.3 63 5.2 NE 20 24 11 13 1004.7 1004.7 0.0
31/04:00pm 30.0 31.3 22.7 65 5.0 ENE 20 26 11 14 1005.1 1005.1 0.0
31/03:30pm 30.2 31.3 22.4 63 5.3 ENE 20 26 11 14 1005.2 1005.2 0.0
31/03:00pm 30.3 32.0 23.0 65 5.0 ENE 19 24 10 13 1005.6 1005.6 0.0
31/02:30pm 30.5 32.3 23.2 65 5.0 ENE 19 24 10 13 1005.8 1005.8 0.0
31/02:00pm 30.4 32.2 22.6 63 5.3 E 17 24 9 13 1006.0 1006.0 0.0
31/01:30pm 30.6 32.7 23.8 67 4.7 ENE 19 24 10 13 1006.4 1006.4 0.0
31/01:00pm 30.3 32.5 23.2 65 4.9 ENE 17 22 9 12 1006.6 1006.6 0.0
31/12:30pm 30.2 32.3 23.1 65 4.9 E 17 20 9 11 1006.9 1006.9 0.0
31/12:00pm 29.8 32.1 22.8 66 4.8 E 15 22 8 12 1007.2 1007.2 0.0
31/11:30am 30.3 33.5 23.7 68 4.6 E 13 19 7 10 1007.2 1007.2 0.0
31/11:00am 30.0 32.7 22.9 65 4.9 E 13 17 7 9 1007.7 1007.7 0.0
31/10:30am 30.2 33.5 23.9 69 4.4 E 13 19 7 10 1008.0 1008.0 0.0
31/10:00am 29.9 32.2 22.1 63 5.3 ESE 13 20 7 11 1008.3 1008.3 0.0
31/09:30am 30.0 33.4 22.7 65 5.0 ESE 9 13 5 7 1008.4 1008.4 0.0
31/09:00am 29.7 33.1 22.7 66 4.8 ESE 9 13 5 7 1008.3 1008.3 0.4
31/08:30am 28.7 32.6 22.9 71 4.0 S 7 13 4 7 1008.0 1008.0 0.4
31/08:00am 27.6 30.9 22.5 74 3.5 S 9 11 5 6 1007.9 1007.9 0.4
31/07:30am 26.4 29.3 21.8 76 3.1 SSW 9 13 5 7 1007.9 1007.9 0.4
31/07:00am 25.2 28.1 21.7 81 2.3 SSW 9 15 5 8 1007.8 1007.8 0.4
31/06:30am 23.9 27.3 22.7 93 0.8 SSW 9 13 5 7 1007.5 1007.5 0.4
31/06:00am 23.6 26.8 22.4 93 0.8 SSW 9 11 5 6 1007.0 1007.0 0.4
31/05:30am 23.8 27.5 22.6 93 0.8 SW 7 9 4 5 1006.5 1006.5 0.4
31/05:00am 23.8 27.5 22.6 93 0.8 SW 7 11 4 6 1006.2 1006.2 0.4
31/04:30am 24.0 27.8 22.8 93 0.8 WSW 7 9 4 5 1005.9 1005.9 0.4
31/04:00am 23.9 27.7 22.7 93 0.8 WSW 7 11 4 6 1006.1 1006.1 0.4
31/03:30am 24.0 27.8 22.8 93 0.8 WSW 7 11 4 6 1006.0 1006.0 0.4
31/03:00am 24.2 28.1 23.0 93 0.8 WSW 7 9 4 5 1005.9 1005.9 0.4
31/02:30am 24.5 28.6 22.9 91 1.1 WSW 6 9 3 5 1006.0 1006.0 0.4
31/02:00am 25.2 29.3 23.3 89 1.3 SW 7 9 4 5 1006.3 1006.3 0.4
31/01:30am 25.5 29.6 23.0 86 1.7 SW 6 9 3 5 1006.5 1006.5 0.4
31/01:00am 25.7 29.7 22.0 80 2.5 SSE 4 9 2 5 1006.6 1006.6 0.4
31/12:30am 27.4 29.6 21.9 72 3.7 E 13 19 7 10 1006.9 1006.9 0.4
31/12:00am 28.0 29.9 22.0 70 4.0 E 15 26 8 14 1007.2 1007.2 0.4
 
Date/Time
EST
Temp
°C
App
Temp
°C
Dew
Point
Rel
Hum
%
Delta-T
°C
Wind Press
QNH
hPa
Press
MSL
hPa
Rain
since 9 am
mm
Dir
 
Spd
km/h
Gust
km/h
Spd
kts
Gust
kts
30/11:30pm 28.1 29.9 22.6 72 3.7 E 17 22 9 12 1007.4 1007.4 0.4
30/11:00pm 28.1 29.9 22.6 72 3.7 E 17 22 9 12 1007.6 1007.6 0.4
30/10:30pm 28.3 29.9 22.1 69 4.2 E 17 24 9 13 1007.4 1007.4 0.4
30/10:00pm 28.3 29.1 21.8 68 4.4 E 20 26 11 14 1007.5 1007.5 0.4
30/09:30pm 28.4 29.4 22.2 69 4.2 E 20 28 11 15 1007.0 1007.0 0.4
30/09:00pm 28.5 30.0 22.7 71 3.9 E 19 26 10 14 1006.8 1006.8 0.4
30/08:30pm 28.4 29.7 22.4 70 4.1 E 19 26 10 14 1006.8 1006.8 0.4
30/08:00pm 28.4 29.7 22.4 70 4.1 E 19 28 10 15 1006.8 1006.8 0.4
30/07:30pm 28.2 29.6 22.9 73 3.6 E 20 26 11 14 1006.4 1006.4 0.4
30/07:00pm 28.0 28.8 23.1 74 3.4 E 24 32 13 17 1005.6 1005.6 0.4
30/06:30pm 28.6 30.0 22.6 70 4.1 E 19 26 10 14 1005.4 1005.4 0.0
30/06:00pm 28.8 30.4 22.8 70 4.1 E 19 28 10 15 1005.2 1005.2 0.0
30/05:30pm 29.0 29.5 22.0 66 4.7 E 22 30 12 16 1004.8 1004.8 0.0
30/05:00pm 29.5 30.4 22.7 67 4.6 E 22 30 12 16 1004.3 1004.3 0.0
30/04:30pm 29.7 31.0 22.7 66 4.8 E 20 30 11 16 1003.9 1003.9 0.0
30/04:00pm 29.7 29.3 22.4 65 5.0 E 28 37 15 20 1003.9 1003.9 0.0
30/03:30pm 29.3 29.0 21.8 64 5.0 E 26 32 14 17 1003.7 1003.7 0.0
30/03:00pm 30.3 31.1 23.2 65 4.9 ENE 24 33 13 18 1004.4 1004.4 0.0
30/02:30pm 30.3 30.8 22.7 64 5.2 ENE 24 30 13 16 1004.5 1004.5 0.0
30/02:00pm 30.2 31.6 22.9 65 5.0 E 20 26 11 14 1004.8 1004.8 0.0
30/01:30pm 29.1 29.8 22.3 66 4.6 ENE 22 30 12 16 1005.1 1005.1 0.0
30/01:00pm 30.1 30.8 23.0 65 4.9 E 24 30 13 16 1005.4 1005.4 0.0
30/12:30pm 29.7 31.1 22.9 67 4.6 E 20 28 11 15 1005.9 1005.9 0.0
30/12:00pm 30.1 32.0 23.8 69 4.4 E 20 30 11 16 1006.1 1006.1 0.0
30/11:30am 29.9 31.5 22.9 66 4.8 E 19 28 10 15 1006.3 1006.3 0.0
30/11:00am 30.1 32.7 23.3 67 4.7 ESE 15 26 8 14 1006.8 1006.8 0.0
30/10:30am 29.8 32.2 23.7 70 4.2 ESE 17 28 9 15 1006.8 1006.8 0.0
30/10:00am 29.5 31.4 22.7 67 4.6 ESE 17 26 9 14 1007.0 1007.0 0.0
30/09:30am 28.6 31.7 23.5 74 3.5 ESE 13 20 7 11 1007.0 1007.0 0.0
30/09:00am 28.0 32.4 23.8 78 2.9 SSE 7 17 4 9 1007.1 1007.1 31.8
30/08:30am 26.3 30.7 24.5 90 1.2 S 9 15 5 8 1007.0 1007.0 31.8
30/08:00am 26.3 31.5 25.1 93 0.8 S 7 15 4 8 1006.8 1006.8 31.8
30/07:30am 25.5 29.4 24.3 93 0.8 SE 11 20 6 11 1006.3 1006.3 31.8
30/07:00am 23.6 26.2 21.9 90 1.1 E 11 20 6 11 1005.9 1005.9 31.8
30/06:30am 24.7 26.6 23.8 95 0.6 NE 20 32 11 17 1005.9 1005.9 23.4
30/06:00am 23.7 26.3 22.7 94 0.7 W 13 19 7 10 1006.0 1006.0 11.6
30/05:30am 25.0 27.8 23.6 92 1.0 W 15 24 8 13 1005.5 1005.5 3.6
30/05:00am 26.1 29.9 22.4 80 2.5 SW 6 11 3 6 1005.0 1005.0 0.2
30/04:30am 27.2 30.5 23.9 82 2.3 SE 13 24 7 13 1004.8 1004.8 0.2
30/04:00am 27.0 28.8 23.5 81 2.4 ESE 20 28 11 15 1004.3 1004.3 0.2
30/03:30am 27.6 30.0 23.6 79 2.7 SE 17 26 9 14 1004.5 1004.5 0.0
30/03:00am 27.8 30.7 23.8 79 2.8 ESE 15 26 8 14 1004.3 1004.3 0.0
30/02:30am 28.0 30.1 23.1 74 3.3 ESE 17 28 9 15 1004.3 1004.3 0.0
30/02:00am 28.2 29.3 23.1 74 3.5 E 22 32 12 17 1004.4 1004.4 0.0
30/01:30am 28.1 28.7 22.8 73 3.6 E 24 39 13 21 1004.4 1004.4 0.0
30/01:00am 28.2 30.2 23.6 76 3.2 ESE 19 28 10 15 1005.1 1005.1 0.0
30/12:30am 28.2 29.7 23.1 74 3.5 ESE 20 28 11 15 1005.4 1005.4 0.0
30/12:00am 28.6 29.4 23.1 72 3.8 E 24 33 13 18 1005.8 1005.8 0.0
 
Date/Time
EST
Temp
°C
App
Temp
°C
Dew
Point
Rel
Hum
%
Delta-T
°C
Wind Press
QNH
hPa
Press
MSL
hPa
Rain
since 9 am
mm
Dir
 
Spd
km/h
Gust
km/h
Spd
kts
Gust
kts
29/11:30pm 28.6 29.4 23.1 72 3.8 E 24 33 13 18 1005.9 1005.9 0.0
29/11:00pm 28.7 29.4 22.9 71 4.0 E 24 33 13 18 1006.3 1006.3 0.0
29/10:30pm 29.0 30.1 24.3 76 3.3 E 26 35 14 19 1006.3 1006.3 0.0
29/10:00pm 29.0 29.4 23.7 73 3.7 E 28 35 15 19 1005.8 1005.8 0.0
29/09:30pm 29.1 30.5 24.2 75 3.4 E 24 33 13 18 1005.2 1005.2 0.0
29/09:00pm 29.1 31.3 24.2 75 3.4 E 20 32 11 17 1005.2 1005.2 0.0
29/08:30pm 29.1 31.0 23.5 72 3.9 E 19 26 10 14 1005.2 1005.2 0.0
29/08:00pm 29.1 30.9 24.2 75 3.4 ENE 22 30 12 16 1004.6 1004.6 0.0
29/07:30pm 29.2 29.6 24.5 76 3.3 ENE 30 35 16 19 1003.9 1003.9 0.0
29/07:00pm 29.3 30.7 24.2 74 3.6 E 24 33 13 18 1004.1 1004.1 0.0
29/06:30pm 29.4 31.0 24.5 75 3.4 E 24 32 13 17 1003.8 1003.8 0.0
29/06:00pm 29.5 30.8 24.1 72 3.8 ENE 24 30 13 16 1003.0 1003.0 0.0
29/05:30pm 29.6 31.0 24.2 73 3.8 ENE 24 32 13 17 1002.5 1002.5 0.0
29/05:00pm 29.8 30.4 23.5 69 4.4 ENE 26 32 14 17 1002.3 1002.3 0.0
29/04:30pm 30.6 31.1 24.0 68 4.6 ENE 28 32 15 17 1002.0 1002.0 0.0
29/04:00pm 30.6 30.9 24.3 69 4.4 ENE 30 35 16 19 1001.7 1001.7 0.0
29/03:30pm 30.6 31.7 24.3 69 4.4 ENE 26 35 14 19 1002.0 1002.0 0.0
29/03:00pm 30.9 32.6 24.1 67 4.7 E 22 32 12 17 1002.5 1002.5 0.0
29/02:30pm 31.1 33.3 24.2 66 4.8 E 20 28 11 15 1002.7 1002.7 0.0
29/02:00pm 31.0 33.1 24.1 66 4.8 E 20 28 11 15 1003.1 1003.1 0.0
29/01:30pm 30.5 32.2 23.4 66 4.9 E 20 28 11 15 1003.2 1003.2 0.0
29/01:00pm 31.0 33.2 23.9 66 4.9 E 19 26 10 14 1003.4 1003.4 0.0
29/12:30pm 31.1 33.3 24.0 66 4.9 E 19 28 10 15 1003.6 1003.6 0.0
29/12:00pm 30.7 32.8 24.1 68 4.6 E 20 28 11 15 1003.7 1003.7 0.0
29/11:30am 30.7 33.0 24.1 68 4.6 E 19 26 10 14 1003.5 1003.5 0.0
29/11:00am 30.1 31.7 23.3 67 4.7 E 20 28 11 15 1003.7 1003.7 0.0
29/10:30am 30.3 32.0 24.0 69 4.4 E 22 32 12 17 1003.7 1003.7 0.0
29/10:00am 30.6 32.4 24.3 69 4.4 E 22 30 12 16 1003.7 1003.7 0.0
29/09:30am 30.0 31.9 23.4 67 4.5 E 19 28 10 15 1003.9 1003.9 0.0
29/09:00am 29.7 30.7 22.9 67 4.7 E 22 30 12 16 1003.9 1003.9 0.0
29/08:30am 29.7 31.3 23.9 71 4.0 E 22 28 12 15 1003.6 1003.6 0.0
29/08:00am 29.5 31.6 23.7 71 4.0 E 19 28 10 15 1003.2 1003.2 0.0
29/07:30am 29.2 30.9 24.1 74 3.5 E 22 28 12 15 1003.0 1003.0 0.0

Other Formats:

Comma delimited format used in spreadsheet applications
http://www.bom.gov.au/fwo/IDQ60801/IDQ60801.95296.axf

JavaScript Object Notation format (JSON) in row-major order
http://www.bom.gov.au/fwo/IDQ60801/IDQ60801.95296.json